createdAt,value
2023-02-03T00:00:46.877Z,-20.09
2023-02-03T00:03:53.000Z,-19.65
2023-02-03T00:06:58.590Z,-19.18
2023-02-03T00:10:05.686Z,-18.59
2023-02-03T00:13:10.193Z,-18.60
2023-02-03T00:16:18.187Z,-18.82
2023-02-03T00:19:23.597Z,-18.03
2023-02-03T00:22:29.521Z,-17.51
2023-02-03T00:25:35.514Z,-17.68
2023-02-03T00:28:42.581Z,-16.99
2023-02-03T00:31:48.643Z,-16.18
2023-02-03T00:34:55.158Z,-16.08
2023-02-03T00:38:00.596Z,-15.79
2023-02-03T00:41:07.337Z,-15.17
2023-02-03T00:44:12.779Z,-14.63
2023-02-03T00:47:19.266Z,-14.02
2023-02-03T00:50:22.976Z,-13.39
2023-02-03T00:53:31.169Z,-13.12
2023-02-03T00:56:35.078Z,-11.84
2023-02-03T00:59:39.306Z,-11.37
2023-02-03T01:02:43.114Z,-10.81
2023-02-03T01:05:52.211Z,-10.17
2023-02-03T01:08:56.199Z,-9.25
2023-02-03T01:12:06.651Z,-8.42
2023-02-03T01:15:12.319Z,-8.95
2023-02-03T01:18:18.767Z,-9.07
2023-02-03T01:21:27.059Z,-9.61
2023-02-03T01:24:34.203Z,-8.97
2023-02-03T01:27:38.043Z,-7.94
2023-02-03T01:30:45.759Z,-7.32
2023-02-03T01:33:53.297Z,-8.01
2023-02-03T01:36:59.540Z,-7.04
2023-02-03T01:40:05.655Z,-6.97
2023-02-03T01:43:34.369Z,-7.12
2023-02-03T01:46:49.625Z,-6.26
2023-02-03T01:50:18.215Z,-5.81
2023-02-03T01:53:22.740Z,-5.56
2023-02-03T01:56:41.929Z,-8.39
2023-02-03T01:59:46.795Z,-8.59
2023-02-03T02:02:51.994Z,-8.98
2023-02-03T02:06:01.655Z,-9.32
2023-02-03T02:09:09.340Z,-8.92
2023-02-03T02:12:13.410Z,-8.07
2023-02-03T02:15:27.088Z,-7.78
2023-02-03T02:18:46.662Z,-8.51
2023-02-03T02:22:04.120Z,-7.34
2023-02-03T02:25:38.046Z,-7.33
2023-02-03T02:29:17.499Z,-6.99
2023-02-03T02:32:43.966Z,-6.98
2023-02-03T02:36:09.681Z,-7.13
2023-02-03T02:39:15.750Z,-7.46
2023-02-03T02:42:45.191Z,-8.28
2023-02-03T02:45:53.288Z,-8.38
2023-02-03T02:49:28.987Z,-8.58
2023-02-03T02:52:44.847Z,-8.82
2023-02-03T02:55:54.763Z,-9.02
2023-02-03T02:59:03.812Z,-9.06
2023-02-03T03:02:09.650Z,-9.29
2023-02-03T03:05:19.527Z,-9.89
2023-02-03T03:08:53.627Z,-10.08
2023-02-03T03:12:05.721Z,-10.75
2023-02-03T03:15:20.877Z,-10.30
2023-02-03T03:18:39.881Z,-10.02
2023-02-03T03:21:50.483Z,-9.51
2023-02-03T03:25:04.587Z,-10.27
2023-02-03T03:28:17.607Z,-10.21
2023-02-03T03:31:23.509Z,-10.35
2023-02-03T03:34:29.309Z,-9.65
2023-02-03T03:37:48.691Z,-10.61
2023-02-03T03:41:04.170Z,-10.63
2023-02-03T03:44:15.222Z,-9.97
2023-02-03T03:47:29.364Z,-9.90
2023-02-03T03:50:54.448Z,-9.56
2023-02-03T03:54:06.268Z,-9.86
2023-02-03T03:57:16.104Z,-9.65
2023-02-03T04:00:27.113Z,-9.50
2023-02-03T04:04:06.654Z,-9.88
2023-02-03T04:07:15.689Z,-9.54
2023-02-03T04:10:35.291Z,-10.10
2023-02-03T04:13:40.964Z,-10.34
2023-02-03T04:16:47.198Z,-10.57
2023-02-03T04:19:52.890Z,-10.49
2023-02-03T04:22:59.460Z,-10.55
2023-02-03T04:26:05.173Z,-10.30
2023-02-03T04:29:11.492Z,-10.36
2023-02-03T04:32:17.659Z,-10.81
2023-02-03T04:35:23.516Z,-10.29
2023-02-03T04:38:30.711Z,-10.72
2023-02-03T04:41:36.676Z,-10.05
2023-02-03T04:44:42.270Z,-10.05
2023-02-03T04:47:54.388Z,-9.64
2023-02-03T04:51:06.447Z,-9.83
2023-02-03T04:54:13.020Z,-10.35
2023-02-03T04:57:18.724Z,-10.76
2023-02-03T05:00:24.594Z,-10.65
2023-02-03T05:03:30.072Z,-10.40
2023-02-03T05:06:35.978Z,-10.30
2023-02-03T05:09:39.571Z,-10.23
2023-02-03T05:12:43.603Z,-10.42
2023-02-03T05:15:49.156Z,-10.21
2023-02-03T05:18:55.353Z,-10.18
2023-02-03T05:22:01.413Z,-10.21
2023-02-03T05:25:07.592Z,-9.74
2023-02-03T05:28:13.458Z,-9.71
2023-02-03T05:31:19.369Z,-10.41
2023-02-03T05:34:25.504Z,-9.77
2023-02-03T05:37:31.345Z,-9.81
2023-02-03T05:40:55.590Z,-9.94
2023-02-03T05:44:01.481Z,-10.67
2023-02-03T05:47:07.015Z,-10.47
2023-02-03T05:50:13.111Z,-10.36
2023-02-03T05:53:19.283Z,-10.24
2023-02-03T05:56:25.117Z,-10.36
2023-02-03T05:59:30.668Z,-10.30
2023-02-03T06:02:34.676Z,-10.01
2023-02-03T06:05:44.606Z,-9.91
2023-02-03T06:08:52.977Z,-10.11
2023-02-03T06:11:56.886Z,-10.34
2023-02-03T06:15:04.107Z,-10.25
2023-02-03T06:18:10.447Z,-10.36
2023-02-03T06:21:16.438Z,-10.57
2023-02-03T06:24:22.417Z,-10.53
2023-02-03T06:27:28.784Z,-10.44
2023-02-03T06:30:38.386Z,-10.43
2023-02-03T06:33:46.015Z,-10.75
2023-02-03T06:37:00.443Z,-11.40
2023-02-03T06:40:06.779Z,-10.82
2023-02-03T06:43:12.414Z,-11.16
2023-02-03T06:46:21.709Z,-11.58
2023-02-03T06:49:30.292Z,-11.20
2023-02-03T06:52:36.151Z,-10.73
2023-02-03T06:55:41.705Z,-10.77
2023-02-03T06:58:48.889Z,-11.24
2023-02-03T07:01:58.108Z,-11.31
2023-02-03T07:05:04.403Z,-11.45
2023-02-03T07:08:10.065Z,-11.19
2023-02-03T07:11:16.220Z,-11.08
2023-02-03T07:14:20.362Z,-11.54
2023-02-03T07:17:29.841Z,-11.54
2023-02-03T07:20:35.938Z,-11.49
2023-02-03T07:23:42.347Z,-11.51
2023-02-03T07:26:48.322Z,-11.70
2023-02-03T07:29:53.994Z,-11.78
2023-02-03T07:32:59.622Z,-11.88
2023-02-03T07:36:06.144Z,-11.94
2023-02-03T07:39:12.712Z,-12.40
2023-02-03T07:42:18.468Z,-12.36
2023-02-03T07:45:28.749Z,-12.24
2023-02-03T07:48:34.504Z,-12.55
2023-02-03T07:51:40.300Z,-12.63
2023-02-03T07:54:45.996Z,-12.67
2023-02-03T07:57:51.690Z,-12.68
2023-02-03T08:00:58.454Z,-12.82
2023-02-03T08:04:06.268Z,-12.98
2023-02-03T08:07:12.546Z,-13.03
2023-02-03T08:10:18.818Z,-13.20
2023-02-03T08:13:24.818Z,-13.18
2023-02-03T08:16:30.429Z,-13.36
2023-02-03T08:19:57.993Z,-13.50
2023-02-03T08:23:03.651Z,-13.61
2023-02-03T08:26:09.634Z,-13.81
2023-02-03T08:29:14.952Z,-13.92
2023-02-03T08:32:22.428Z,-14.33
2023-02-03T08:35:29.876Z,-14.15
2023-02-03T08:42:12.859Z,-14.33
2023-02-03T08:45:19.062Z,-14.48
2023-02-03T08:48:24.788Z,-14.50
2023-02-03T08:51:30.963Z,-14.57
2023-02-03T08:54:37.179Z,-14.72
2023-02-03T08:57:44.079Z,-14.88
2023-02-03T09:00:50.958Z,-14.79
2023-02-03T09:03:57.061Z,-14.54
2023-02-03T09:07:05.760Z,-14.86
2023-02-03T09:10:11.744Z,-14.82
2023-02-03T09:13:18.360Z,-14.91
2023-02-03T09:16:24.696Z,-14.57
2023-02-03T09:19:31.523Z,-14.70
2023-02-03T09:22:37.311Z,-15.43
2023-02-03T09:25:46.285Z,-15.01
2023-02-03T09:28:51.622Z,-15.36
2023-02-03T09:31:58.627Z,-15.51
2023-02-03T09:35:06.065Z,-15.73
2023-02-03T09:38:11.736Z,-15.52
2023-02-03T09:41:52.305Z,-15.48
2023-02-03T09:45:19.206Z,-15.75
2023-02-03T09:48:32.873Z,-16.08
2023-02-03T09:51:50.531Z,-16.48
2023-02-03T09:55:07.016Z,-16.61
2023-02-03T09:58:24.503Z,-16.58
2023-02-03T10:01:55.545Z,-16.54
2023-02-03T10:05:09.755Z,-16.96
2023-02-03T10:08:51.187Z,-16.97
2023-02-03T10:12:25.618Z,-17.26
2023-02-03T10:16:03.083Z,-17.51
2023-02-03T10:19:17.479Z,-17.56
2023-02-03T10:22:29.104Z,-17.57
2023-02-03T10:25:43.061Z,-17.88
2023-02-03T10:29:19.183Z,-17.40
2023-02-03T10:32:31.273Z,-17.46
2023-02-03T10:35:58.536Z,-17.93
2023-02-03T10:39:13.262Z,-17.62
2023-02-03T10:42:18.458Z,-17.62
2023-02-03T10:45:25.808Z,-17.93
2023-02-03T10:48:32.194Z,-17.67
2023-02-03T10:51:52.893Z,-17.80
2023-02-03T10:55:00.209Z,-18.06
2023-02-03T10:58:17.240Z,-18.40
2023-02-03T11:01:27.570Z,-18.99
2023-02-03T11:04:34.825Z,-18.58
2023-02-03T11:07:40.674Z,-19.46
2023-02-03T11:11:04.075Z,-19.02
2023-02-03T11:17:46.917Z,-20.02
2023-02-03T11:20:54.327Z,-19.78
2023-02-03T11:24:27.454Z,-19.42
2023-02-03T11:27:35.686Z,-19.63
2023-02-03T11:30:45.358Z,-19.26
2023-02-03T11:34:01.138Z,-19.89
2023-02-03T11:37:33.357Z,-19.65
2023-02-03T11:40:40.788Z,-19.57
2023-02-03T11:43:48.045Z,-19.63
2023-02-03T11:46:57.850Z,-20.42
2023-02-03T11:50:24.983Z,-20.90
2023-02-03T11:53:57.014Z,-20.84
2023-02-03T11:57:39.806Z,-21.32
2023-02-03T12:01:14.998Z,-20.53
2023-02-03T12:05:01.385Z,-20.34
2023-02-03T12:08:15.888Z,-20.00
2023-02-03T12:12:12.040Z,-20.44
2023-02-03T12:15:57.762Z,-20.77
2023-02-03T12:19:22.880Z,-20.92
2023-02-03T12:22:36.465Z,-21.26
2023-02-03T12:26:07.474Z,-20.76
2023-02-03T12:29:21.610Z,-20.95
2023-02-03T12:32:39.199Z,-21.74
2023-02-03T12:35:55.524Z,-21.11
2023-02-03T12:39:13.870Z,-21.58
2023-02-03T12:42:35.860Z,-21.26
2023-02-03T12:45:49.148Z,-21.67
2023-02-03T12:49:08.479Z,-21.33
2023-02-03T12:52:37.652Z,-21.56
2023-02-03T12:55:55.907Z,-21.91
2023-02-03T12:59:22.230Z,-21.71
2023-02-03T13:02:34.037Z,-22.01
2023-02-03T13:05:49.428Z,-22.09
2023-02-03T13:09:39.834Z,-22.39
2023-02-03T13:12:52.953Z,-22.42
2023-02-03T13:15:59.719Z,-22.67
2023-02-03T13:19:19.948Z,-22.91
2023-02-03T13:22:27.908Z,-22.91
2023-02-03T13:26:13.112Z,-23.02
2023-02-03T13:29:24.375Z,-22.60
2023-02-03T13:32:47.689Z,-22.60
2023-02-03T13:36:02.638Z,-22.65
2023-02-03T13:39:39.915Z,-22.53
2023-02-03T13:43:07.643Z,-23.18
2023-02-03T13:46:30.588Z,-24.05
2023-02-03T13:49:38.039Z,-24.43
2023-02-03T13:53:25.333Z,-23.35
2023-02-03T13:56:33.628Z,-22.80
2023-02-03T13:59:39.794Z,-22.98
2023-02-03T14:02:53.878Z,-23.07
2023-02-03T14:06:02.538Z,-23.13
2023-02-03T14:09:32.471Z,-22.97
2023-02-03T14:12:41.191Z,-23.37
2023-02-03T14:16:07.030Z,-23.60
2023-02-03T14:19:34.301Z,-23.47
2023-02-03T14:22:41.353Z,-24.19
2023-02-03T14:25:52.400Z,-23.67
2023-02-03T14:28:58.368Z,-23.25
2023-02-03T14:32:10.744Z,-23.92
2023-02-03T14:35:21.251Z,-24.09
2023-02-03T14:38:34.172Z,-24.05
2023-02-03T14:41:47.869Z,-24.13
2023-02-03T14:45:09.742Z,-24.19
2023-02-03T14:48:24.078Z,-24.37
2023-02-03T14:51:47.855Z,-24.85
2023-02-03T14:55:07.180Z,-24.49
2023-02-03T14:58:37.568Z,-24.27
2023-02-03T15:01:42.947Z,-24.42
2023-02-03T15:04:51.566Z,-24.62
2023-02-03T15:07:57.482Z,-24.52
2023-02-03T15:11:33.190Z,-24.50
2023-02-03T15:14:39.543Z,-24.63
2023-02-03T15:17:45.509Z,-24.54
2023-02-03T15:20:55.382Z,-24.43
2023-02-03T15:24:01.844Z,-24.58
2023-02-03T15:27:23.078Z,-24.75
2023-02-03T15:30:30.751Z,-24.60
2023-02-03T15:33:39.595Z,-24.84
2023-02-03T15:36:50.928Z,-25.15
2023-02-03T15:40:18.520Z,-24.95
2023-02-03T15:43:40.250Z,-24.94
2023-02-03T15:46:52.663Z,-24.76
2023-02-03T15:50:18.084Z,-24.65
2023-02-03T15:53:41.087Z,-24.38
2023-02-03T15:57:11.623Z,-24.72
2023-02-03T16:00:32.151Z,-25.06
2023-02-03T16:03:46.075Z,-25.11
2023-02-03T16:06:54.923Z,-24.89
2023-02-03T16:10:03.779Z,-24.62
2023-02-03T16:13:26.735Z,-25.12
2023-02-03T16:16:43.689Z,-25.32
2023-02-03T16:20:13.641Z,-25.56
2023-02-03T16:23:24.521Z,-25.64
2023-02-03T16:26:32.388Z,-25.72
2023-02-03T16:29:56.920Z,-25.79
2023-02-03T16:33:29.493Z,-25.71
2023-02-03T16:36:59.979Z,-25.37
2023-02-03T16:40:24.562Z,-26.31
2023-02-03T16:43:48.842Z,-26.10
2023-02-03T16:47:16.407Z,-26.14
2023-02-03T16:51:02.330Z,-26.42
2023-02-03T16:54:15.763Z,-25.73
2023-02-03T16:57:24.918Z,-26.01
2023-02-03T17:00:42.255Z,-25.90
2023-02-03T17:04:12.843Z,-25.79
2023-02-03T17:07:18.257Z,-25.76
2023-02-03T17:10:25.224Z,-25.91
2023-02-03T17:13:31.351Z,-25.48
2023-02-03T17:16:37.845Z,-25.59
2023-02-03T17:19:43.298Z,-25.40
2023-02-03T17:22:52.541Z,-25.34
2023-02-03T17:25:58.803Z,-25.76
2023-02-03T17:29:05.614Z,-26.01
2023-02-03T17:32:15.698Z,-25.94
2023-02-03T17:35:21.628Z,-26.04
2023-02-03T17:38:27.416Z,-26.30
2023-02-03T17:55:04.745Z,-25.68
2023-02-03T17:58:10.465Z,-25.11
2023-02-03T18:01:20.818Z,-25.45
2023-02-03T18:04:24.627Z,-25.02
2023-02-03T18:07:29.260Z,-26.15
2023-02-03T18:10:35.218Z,-26.86
2023-02-03T18:13:45.591Z,-25.98
2023-02-03T18:16:53.961Z,-26.19
2023-02-03T18:20:01.559Z,-26.12
2023-02-03T18:23:08.018Z,-26.19
2023-02-03T18:26:14.821Z,-26.53
2023-02-03T18:29:21.600Z,-26.24
2023-02-03T18:32:27.520Z,-26.18
2023-02-03T18:35:34.385Z,-25.72
2023-02-03T18:38:42.510Z,-25.69
2023-02-03T18:41:48.261Z,-26.02
2023-02-03T18:44:54.345Z,-26.24
2023-02-03T18:47:59.768Z,-26.14
2023-02-03T18:51:10.233Z,-26.29
2023-02-03T18:54:15.690Z,-26.17
2023-02-03T18:57:25.035Z,-26.27
2023-02-03T19:00:30.915Z,-26.48
2023-02-03T19:03:38.714Z,-26.74
2023-02-03T19:06:46.265Z,-26.86
2023-02-03T19:09:59.910Z,-26.81
2023-02-03T19:13:05.357Z,-27.29
2023-02-03T19:16:15.075Z,-27.07
2023-02-03T19:19:21.229Z,-26.96
2023-02-03T19:22:27.146Z,-26.72
2023-02-03T19:25:32.536Z,-26.52
2023-02-03T19:28:41.212Z,-26.64
2023-02-03T19:31:46.912Z,-26.78
2023-02-03T19:34:52.989Z,-26.72
2023-02-03T19:37:58.779Z,-26.43
2023-02-03T19:41:05.518Z,-26.58
2023-02-03T19:44:11.350Z,-26.99
2023-02-03T19:47:17.596Z,-26.70
2023-02-03T19:50:22.985Z,-26.74
2023-02-03T19:53:29.396Z,-26.66
2023-02-03T19:56:34.883Z,-27.02
2023-02-03T19:59:40.778Z,-26.72
2023-02-03T20:02:46.336Z,-27.18
2023-02-03T20:05:55.666Z,-26.97
2023-02-03T20:09:01.145Z,-27.31
2023-02-03T20:12:07.652Z,-27.38
2023-02-03T20:15:11.532Z,-27.67
2023-02-03T20:18:17.583Z,-27.49
2023-02-03T20:21:23.155Z,-27.88
2023-02-03T20:24:29.336Z,-28.03
2023-02-03T20:27:34.739Z,-28.18
2023-02-03T20:30:41.783Z,-28.13
2023-02-03T20:33:45.578Z,-28.12
2023-02-03T20:36:53.201Z,-27.92
2023-02-03T20:39:59.148Z,-27.80
2023-02-03T20:43:16.566Z,-27.53
2023-02-03T20:46:22.744Z,-27.30
2023-02-03T20:49:29.203Z,-27.31
2023-02-03T20:52:35.121Z,-27.20
2023-02-03T20:55:41.091Z,-27.50
2023-02-03T20:58:46.929Z,-27.10
2023-02-03T21:01:53.409Z,-27.17
2023-02-03T21:04:59.699Z,-27.38
2023-02-03T21:08:18.457Z,-27.28
2023-02-03T21:11:28.184Z,-27.35
2023-02-03T21:14:40.481Z,-27.67
2023-02-03T21:17:44.561Z,-27.31
2023-02-03T21:20:50.788Z,-27.45
2023-02-03T21:23:56.508Z,-27.30
2023-02-03T21:27:03.857Z,-27.58
2023-02-03T21:30:33.310Z,-27.55
2023-02-03T21:33:46.578Z,-27.23
2023-02-03T21:36:51.971Z,-27.18
2023-02-03T21:39:58.352Z,-26.91
2023-02-03T21:43:04.034Z,-27.15
2023-02-03T21:46:23.268Z,-27.29
2023-02-03T21:49:30.339Z,-27.44
2023-02-03T21:52:36.399Z,-27.35
2023-02-03T21:55:43.508Z,-27.67
2023-02-03T21:58:51.684Z,-28.47
2023-02-03T22:02:00.577Z,-27.89
2023-02-03T22:05:06.741Z,-27.87
2023-02-03T22:08:23.545Z,-27.81
2023-02-03T22:11:31.200Z,-27.87
2023-02-03T22:14:37.513Z,-27.85
2023-02-03T22:17:42.707Z,-27.65
2023-02-03T22:20:46.698Z,-27.65
2023-02-03T22:23:53.095Z,-27.81
2023-02-03T22:27:00.882Z,-27.64
2023-02-03T22:30:06.943Z,-27.64
2023-02-03T22:33:12.658Z,-27.89
2023-02-03T22:36:18.561Z,-27.75
2023-02-03T22:39:24.206Z,-27.88
2023-02-03T22:42:30.671Z,-27.81
2023-02-03T22:45:36.412Z,-27.74
2023-02-03T22:48:42.656Z,-27.72
2023-02-03T22:51:47.097Z,-28.07
2023-02-03T22:54:54.997Z,-27.74
2023-02-03T22:58:00.690Z,-27.70
2023-02-03T23:01:06.536Z,-27.41
2023-02-03T23:04:12.744Z,-27.73
2023-02-03T23:07:19.098Z,-27.20
2023-02-03T23:10:27.474Z,-26.77
2023-02-03T23:13:32.988Z,-26.73
2023-02-03T23:16:39.038Z,-26.37
2023-02-03T23:19:43.352Z,-26.08
2023-02-03T23:22:48.597Z,-25.84
2023-02-03T23:25:54.711Z,-25.82
2023-02-03T23:29:00.470Z,-25.88
2023-02-03T23:32:07.265Z,-25.94
2023-02-03T23:35:32.549Z,-25.80
2023-02-03T23:38:39.176Z,-25.81
2023-02-03T23:41:44.885Z,-25.96
2023-02-03T23:44:50.550Z,-24.99
2023-02-03T23:47:56.324Z,-24.90
2023-02-03T23:51:02.599Z,-24.66
2023-02-03T23:54:08.751Z,-24.32
2023-02-03T23:57:14.808Z,-24.16
